sensor_id;sensor_type;location;lat;lon;timestamp;pressure;altitude;pressure_sealevel;temperature;humidity
71778;BME280;59609;52.430;4.668;2022-08-03T00:01:03;101591.22;;;19.71;91.35
71778;BME280;59609;52.430;4.668;2022-08-03T00:03:29;101602.00;;;19.74;91.76
71778;BME280;59609;52.430;4.668;2022-08-03T00:05:54;101605.66;;;19.74;91.47
71778;BME280;59609;52.430;4.668;2022-08-03T00:08:19;101600.47;;;19.71;91.73
71778;BME280;59609;52.430;4.668;2022-08-03T00:10:45;101597.88;;;19.70;91.52
71778;BME280;59609;52.430;4.668;2022-08-03T00:13:10;101597.47;;;19.73;91.68
71778;BME280;59609;52.430;4.668;2022-08-03T00:15:39;101591.22;;;19.71;91.66
71778;BME280;59609;52.430;4.668;2022-08-03T00:18:05;101601.56;;;19.77;91.73
71778;BME280;59609;52.430;4.668;2022-08-03T00:20:30;101593.78;;;19.72;92.02
71778;BME280;59609;52.430;4.668;2022-08-03T00:22:55;101601.75;;;19.69;91.95
71778;BME280;59609;52.430;4.668;2022-08-03T00:25:21;101596.59;;;19.72;91.74
71778;BME280;59609;52.430;4.668;2022-08-03T00:27:46;101597.69;;;19.71;91.89
71778;BME280;59609;52.430;4.668;2022-08-03T00:30:11;101588.44;;;19.71;92.01
71778;BME280;59609;52.430;4.668;2022-08-03T00:32:37;101580.50;;;19.74;92.04
71778;BME280;59609;52.430;4.668;2022-08-03T00:35:02;101584.75;;;19.70;92.21
71778;BME280;59609;52.430;4.668;2022-08-03T00:37:28;101578.31;;;19.70;92.33
71778;BME280;59609;52.430;4.668;2022-08-03T00:39:53;101577.22;;;19.64;92.81
71778;BME280;59609;52.430;4.668;2022-08-03T00:42:18;101583.88;;;19.63;92.72
71778;BME280;59609;52.430;4.668;2022-08-03T00:44:44;101578.47;;;19.62;92.99
71778;BME280;59609;52.430;4.668;2022-08-03T00:47:10;101584.28;;;19.60;93.17
71778;BME280;59609;52.430;4.668;2022-08-03T00:49:36;101584.94;;;19.62;92.95
71778;BME280;59609;52.430;4.668;2022-08-03T00:52:03;101580.81;;;19.58;92.85
71778;BME280;59609;52.430;4.668;2022-08-03T00:54:29;101577.38;;;19.56;93.35
71778;BME280;59609;52.430;4.668;2022-08-03T00:56:54;101572.63;;;19.50;93.73
71778;BME280;59609;52.430;4.668;2022-08-03T00:59:20;101565.94;;;19.44;93.83
71778;BME280;59609;52.430;4.668;2022-08-03T01:01:45;101570.25;;;19.47;94.08
71778;BME280;59609;52.430;4.668;2022-08-03T01:04:11;101565.56;;;19.54;93.60
71778;BME280;59609;52.430;4.668;2022-08-03T01:06:49;101558.19;;;19.46;94.01
71778;BME280;59609;52.430;4.668;2022-08-03T01:09:30;101552.81;;;19.45;94.04
71778;BME280;59609;52.430;4.668;2022-08-03T01:12:02;101550.44;;;19.42;94.25
71778;BME280;59609;52.430;4.668;2022-08-03T01:14:45;101556.88;;;19.42;94.24
71778;BME280;59609;52.430;4.668;2022-08-03T01:17:38;101558.75;;;19.35;94.64
71778;BME280;59609;52.430;4.668;2022-08-03T01:20:11;101548.66;;;19.34;94.96
71778;BME280;59609;52.430;4.668;2022-08-03T01:22:47;101552.09;;;19.36;94.91
71778;BME280;59609;52.430;4.668;2022-08-03T01:25:33;101550.78;;;19.32;95.45
71778;BME280;59609;52.430;4.668;2022-08-03T01:28:28;101552.47;;;19.27;95.55
71778;BME280;59609;52.430;4.668;2022-08-03T01:31:02;101549.88;;;19.25;95.52
71778;BME280;59609;52.430;4.668;2022-08-03T01:33:36;101546.19;;;19.18;95.01
71778;BME280;59609;52.430;4.668;2022-08-03T01:36:06;101552.13;;;19.09;95.95
71778;BME280;59609;52.430;4.668;2022-08-03T01:38:40;101552.50;;;18.99;95.95
71778;BME280;59609;52.430;4.668;2022-08-03T01:41:24;101553.78;;;18.96;96.07
71778;BME280;59609;52.430;4.668;2022-08-03T01:43:54;101555.06;;;18.94;96.39
71778;BME280;59609;52.430;4.668;2022-08-03T01:46:23;101556.09;;;18.86;96.71
71778;BME280;59609;52.430;4.668;2022-08-03T01:48:50;101556.28;;;18.85;96.96
71778;BME280;59609;52.430;4.668;2022-08-03T01:51:18;101550.44;;;18.80;96.94
71778;BME280;59609;52.430;4.668;2022-08-03T01:53:44;101553.66;;;18.77;96.85
71778;BME280;59609;52.430;4.668;2022-08-03T01:56:12;101550.41;;;18.73;96.93
71778;BME280;59609;52.430;4.668;2022-08-03T01:58:39;101541.09;;;18.66;96.69
71778;BME280;59609;52.430;4.668;2022-08-03T02:01:05;101547.09;;;18.63;97.30
71778;BME280;59609;52.430;4.668;2022-08-03T02:03:36;101538.91;;;18.62;97.58
71778;BME280;59609;52.430;4.668;2022-08-03T02:06:04;101541.06;;;18.60;97.73
71778;BME280;59609;52.430;4.668;2022-08-03T02:08:31;101542.13;;;18.59;97.44
71778;BME280;59609;52.430;4.668;2022-08-03T02:10:57;101539.53;;;18.57;97.70
71778;BME280;59609;52.430;4.668;2022-08-03T02:13:25;101532.81;;;18.51;98.04
71778;BME280;59609;52.430;4.668;2022-08-03T02:15:51;101535.97;;;18.48;97.85
71778;BME280;59609;52.430;4.668;2022-08-03T02:18:19;101537.47;;;18.44;98.12
71778;BME280;59609;52.430;4.668;2022-08-03T02:20:46;101535.75;;;18.43;98.79
71778;BME280;59609;52.430;4.668;2022-08-03T02:23:14;101529.09;;;18.44;98.38
71778;BME280;59609;52.430;4.668;2022-08-03T02:25:43;101533.13;;;18.42;98.79
71778;BME280;59609;52.430;4.668;2022-08-03T02:28:15;101530.16;;;18.43;98.87
71778;BME280;59609;52.430;4.668;2022-08-03T02:30:45;101526.91;;;18.40;98.67
71778;BME280;59609;52.430;4.668;2022-08-03T02:33:15;101534.41;;;18.39;99.04
71778;BME280;59609;52.430;4.668;2022-08-03T02:35:42;101533.06;;;18.35;99.11
71778;BME280;59609;52.430;4.668;2022-08-03T02:38:10;101532.84;;;18.30;99.36
71778;BME280;59609;52.430;4.668;2022-08-03T02:40:38;101530.91;;;18.31;99.43
71778;BME280;59609;52.430;4.668;2022-08-03T02:43:08;101525.09;;;18.32;99.25
71778;BME280;59609;52.430;4.668;2022-08-03T02:45:35;101524.47;;;18.30;99.02
71778;BME280;59609;52.430;4.668;2022-08-03T02:48:07;101529.19;;;18.30;99.34
71778;BME280;59609;52.430;4.668;2022-08-03T02:50:34;101528.53;;;18.28;99.29
71778;BME280;59609;52.430;4.668;2022-08-03T02:53:02;101530.63;;;18.26;99.17
71778;BME280;59609;52.430;4.668;2022-08-03T02:55:27;101521.63;;;18.24;99.11
71778;BME280;59609;52.430;4.668;2022-08-03T02:57:54;101522.00;;;18.21;99.51
71778;BME280;59609;52.430;4.668;2022-08-03T03:00:22;101520.47;;;18.18;99.31
71778;BME280;59609;52.430;4.668;2022-08-03T03:02:47;101510.56;;;18.16;99.50
71778;BME280;59609;52.430;4.668;2022-08-03T03:05:14;101517.63;;;18.12;99.23
71778;BME280;59609;52.430;4.668;2022-08-03T03:07:41;101519.28;;;18.06;99.78
71778;BME280;59609;52.430;4.668;2022-08-03T03:10:07;101518.81;;;18.02;100.00
71778;BME280;59609;52.430;4.668;2022-08-03T03:12:35;101515.78;;;17.97;100.00
71778;BME280;59609;52.430;4.668;2022-08-03T03:15:01;101519.03;;;18.01;100.00
71778;BME280;59609;52.430;4.668;2022-08-03T03:17:27;101517.88;;;17.95;99.94
71778;BME280;59609;52.430;4.668;2022-08-03T03:19:54;101513.16;;;17.96;99.93
71778;BME280;59609;52.430;4.668;2022-08-03T03:22:21;101518.97;;;17.94;100.00
71778;BME280;59609;52.430;4.668;2022-08-03T03:24:48;101519.81;;;17.95;99.98
71778;BME280;59609;52.430;4.668;2022-08-03T03:27:16;101523.69;;;17.94;99.98
71778;BME280;59609;52.430;4.668;2022-08-03T03:29:41;101523.84;;;17.92;99.84
71778;BME280;59609;52.430;4.668;2022-08-03T03:32:07;101523.22;;;17.90;100.00
71778;BME280;59609;52.430;4.668;2022-08-03T03:34:33;101515.72;;;17.91;100.00
71778;BME280;59609;52.430;4.668;2022-08-03T03:36:58;101520.88;;;17.94;100.00
71778;BME280;59609;52.430;4.668;2022-08-03T03:39:24;101518.28;;;17.92;100.00
71778;BME280;59609;52.430;4.668;2022-08-03T03:41:49;101521.28;;;17.91;100.00
71778;BME280;59609;52.430;4.668;2022-08-03T03:44:15;101523.22;;;17.90;100.00
71778;BME280;59609;52.430;4.668;2022-08-03T03:46:41;101518.91;;;17.88;100.00
71778;BME280;59609;52.430;4.668;2022-08-03T03:49:06;101524.66;;;17.86;100.00
71778;BME280;59609;52.430;4.668;2022-08-03T03:51:32;101524.66;;;17.86;100.00
71778;BME280;59609;52.430;4.668;2022-08-03T03:54:02;101528.31;;;17.87;100.00
71778;BME280;59609;52.430;4.668;2022-08-03T03:56:28;101528.31;;;17.87;100.00
71778;BME280;59609;52.430;4.668;2022-08-03T03:58:54;101525.06;;;17.83;100.00
71778;BME280;59609;52.430;4.668;2022-08-03T04:01:20;101528.50;;;17.85;100.00
71778;BME280;59609;52.430;4.668;2022-08-03T04:03:46;101532.84;;;17.88;100.00
71778;BME280;59609;52.430;4.668;2022-08-03T04:06:12;101532.44;;;17.91;100.00
71778;BME280;59609;52.430;4.668;2022-08-03T04:08:56;101527.44;;;17.86;100.00
71778;BME280;59609;52.430;4.668;2022-08-03T04:12:01;101525.31;;;17.88;100.00
71778;BME280;59609;52.430;4.668;2022-08-03T04:14:34;101528.50;;;17.85;100.00
71778;BME280;59609;52.430;4.668;2022-08-03T04:17:03;101539.88;;;17.84;100.00
71778;BME280;59609;52.430;4.668;2022-08-03T04:19:31;101535.41;;;17.89;100.00
71778;BME280;59609;52.430;4.668;2022-08-03T04:22:00;101532.91;;;17.94;100.00
71778;BME280;59609;52.430;4.668;2022-08-03T04:24:38;101540.19;;;17.95;99.80
71778;BME280;59609;52.430;4.668;2022-08-03T04:27:07;101542.13;;;17.95;100.00
71778;BME280;59609;52.430;4.668;2022-08-03T04:29:36;101541.72;;;17.98;99.89
71778;BME280;59609;52.430;4.668;2022-08-03T04:32:04;101528.22;;;18.01;100.00
71778;BME280;59609;52.430;4.668;2022-08-03T04:34:31;101548.84;;;18.00;99.61
71778;BME280;59609;52.430;4.668;2022-08-03T04:36:58;101552.22;;;17.96;100.00
71778;BME280;59609;52.430;4.668;2022-08-03T04:39:26;101542.97;;;17.95;100.00
71778;BME280;59609;52.430;4.668;2022-08-03T04:41:55;101556.53;;;17.98;99.74
71778;BME280;59609;52.430;4.668;2022-08-03T04:44:23;101550.19;;;18.05;99.74
71778;BME280;59609;52.430;4.668;2022-08-03T04:46:49;101552.97;;;18.05;99.73
71778;BME280;59609;52.430;4.668;2022-08-03T04:49:15;101549.56;;;18.09;99.64
71778;BME280;59609;52.430;4.668;2022-08-03T04:51:40;101554.16;;;18.17;99.38
71778;BME280;59609;52.430;4.668;2022-08-03T04:54:11;101563.38;;;18.17;99.37
71778;BME280;59609;52.430;4.668;2022-08-03T04:56:39;101557.88;;;18.24;99.08
71778;BME280;59609;52.430;4.668;2022-08-03T04:59:05;101565.63;;;18.28;98.71
71778;BME280;59609;52.430;4.668;2022-08-03T05:01:30;101566.31;;;18.30;98.42
71778;BME280;59609;52.430;4.668;2022-08-03T05:03:55;101567.66;;;18.34;98.55
71778;BME280;59609;52.430;4.668;2022-08-03T05:06:21;101553.69;;;18.56;98.10
71778;BME280;59609;52.430;4.668;2022-08-03T05:08:46;101558.44;;;18.62;97.15
71778;BME280;59609;52.430;4.668;2022-08-03T05:11:12;101554.88;;;18.68;96.81
71778;BME280;59609;52.430;4.668;2022-08-03T05:13:37;101558.44;;;18.62;96.93
71778;BME280;59609;52.430;4.668;2022-08-03T05:16:02;101557.03;;;18.72;96.69
71778;BME280;59609;52.430;4.668;2022-08-03T05:18:28;101555.97;;;18.73;96.55
71778;BME280;59609;52.430;4.668;2022-08-03T05:20:53;101560.09;;;18.77;96.77
71778;BME280;59609;52.430;4.668;2022-08-03T05:23:19;101553.94;;;18.88;96.50
71778;BME280;59609;52.430;4.668;2022-08-03T05:25:44;101552.97;;;19.02;95.45
71778;BME280;59609;52.430;4.668;2022-08-03T05:28:09;101558.66;;;19.22;94.77
71778;BME280;59609;52.430;4.668;2022-08-03T05:30:36;101552.22;;;19.22;95.22
71778;BME280;59609;52.430;4.668;2022-08-03T05:33:02;101553.06;;;19.16;94.89
71778;BME280;59609;52.430;4.668;2022-08-03T05:35:28;101561.25;;;19.17;95.50
71778;BME280;59609;52.430;4.668;2022-08-03T05:37:53;101562.63;;;19.34;94.68
71778;BME280;59609;52.430;4.668;2022-08-03T05:40:19;101557.00;;;19.28;94.63
71778;BME280;59609;52.430;4.668;2022-08-03T05:42:44;101549.88;;;19.25;95.13
71778;BME280;59609;52.430;4.668;2022-08-03T05:45:10;101559.72;;;19.49;94.13
71778;BME280;59609;52.430;4.668;2022-08-03T05:47:42;101551.28;;;19.42;94.51
71778;BME280;59609;52.430;4.668;2022-08-03T05:50:11;101552.84;;;19.58;94.13
71778;BME280;59609;52.430;4.668;2022-08-03T05:52:38;101558.66;;;19.50;94.06
71778;BME280;59609;52.430;4.668;2022-08-03T05:55:07;101545.00;;;19.75;93.54
71778;BME280;59609;52.430;4.668;2022-08-03T05:57:33;101545.16;;;19.67;93.38
71778;BME280;59609;52.430;4.668;2022-08-03T05:59:59;101546.88;;;19.61;93.69
71778;BME280;59609;52.430;4.668;2022-08-03T06:02:26;101554.84;;;19.64;93.99
71778;BME280;59609;52.430;4.668;2022-08-03T06:04:51;101555.53;;;19.79;93.71
71778;BME280;59609;52.430;4.668;2022-08-03T06:07:17;101549.53;;;19.89;93.05
71778;BME280;59609;52.430;4.668;2022-08-03T06:09:42;101549.34;;;19.90;93.03
71778;BME280;59609;52.430;4.668;2022-08-03T06:12:08;101554.50;;;19.93;92.81
71778;BME280;59609;52.430;4.668;2022-08-03T06:14:33;101545.69;;;19.96;92.87
71778;BME280;59609;52.430;4.668;2022-08-03T06:16:58;101547.44;;;20.04;93.06
71778;BME280;59609;52.430;4.668;2022-08-03T06:19:23;101556.28;;;20.08;93.19
71778;BME280;59609;52.430;4.668;2022-08-03T06:21:51;101543.09;;;20.01;92.52
71778;BME280;59609;52.430;4.668;2022-08-03T06:24:16;101562.75;;;20.15;92.28
71778;BME280;59609;52.430;4.668;2022-08-03T06:26:41;101556.34;;;20.27;92.11
71778;BME280;59609;52.430;4.668;2022-08-03T06:29:07;101560.41;;;20.25;92.32
71778;BME280;59609;52.430;4.668;2022-08-03T06:31:32;101564.97;;;20.39;92.02
71778;BME280;59609;52.430;4.668;2022-08-03T06:33:57;101569.25;;;20.35;91.51
71778;BME280;59609;52.430;4.668;2022-08-03T06:36:23;101567.31;;;20.42;91.64
71778;BME280;59609;52.430;4.668;2022-08-03T06:38:49;101558.09;;;20.68;90.10
71778;BME280;59609;52.430;4.668;2022-08-03T06:41:15;101561.75;;;20.88;89.60
71778;BME280;59609;52.430;4.668;2022-08-03T06:43:40;101567.78;;;20.91;89.50
71778;BME280;59609;52.430;4.668;2022-08-03T06:46:06;101564.97;;;21.04;88.05
71778;BME280;59609;52.430;4.668;2022-08-03T06:48:32;101568.19;;;20.95;88.42
71778;BME280;59609;52.430;4.668;2022-08-03T06:50:57;101571.19;;;21.06;87.87
71778;BME280;59609;52.430;4.668;2022-08-03T06:53:23;101580.47;;;21.20;87.35
71778;BME280;59609;52.430;4.668;2022-08-03T06:55:50;101575.94;;;21.26;87.05
71778;BME280;59609;52.430;4.668;2022-08-03T06:58:15;101577.66;;;21.33;86.57
71778;BME280;59609;52.430;4.668;2022-08-03T07:00:41;101577.66;;;21.27;86.99
71778;BME280;59609;52.430;4.668;2022-08-03T07:03:06;101579.81;;;21.38;86.62
71778;BME280;59609;52.430;4.668;2022-08-03T07:05:31;101580.16;;;21.61;85.69
71778;BME280;59609;52.430;4.668;2022-08-03T07:07:59;101583.13;;;21.66;84.34
71778;BME280;59609;52.430;4.668;2022-08-03T07:10:26;101586.38;;;21.70;83.69
71778;BME280;59609;52.430;4.668;2022-08-03T07:12:51;101589.19;;;21.63;83.70
71778;BME280;59609;52.430;4.668;2022-08-03T07:15:17;101596.19;;;21.41;84.87
71778;BME280;59609;52.430;4.668;2022-08-03T07:17:42;101591.47;;;21.22;84.96
71778;BME280;59609;52.430;4.668;2022-08-03T07:20:08;101603.91;;;21.52;84.26
71778;BME280;59609;52.430;4.668;2022-08-03T07:22:34;101602.94;;;21.84;83.54
71778;BME280;59609;52.430;4.668;2022-08-03T07:25:00;101599.50;;;22.27;82.24
71778;BME280;59609;52.430;4.668;2022-08-03T07:27:25;101613.00;;;22.12;82.35
71778;BME280;59609;52.430;4.668;2022-08-03T07:29:52;101613.56;;;22.20;81.57
71778;BME280;59609;52.430;4.668;2022-08-03T07:32:18;101617.34;;;22.01;81.26
71778;BME280;59609;52.430;4.668;2022-08-03T07:34:44;101620.91;;;22.21;81.39
71778;BME280;59609;52.430;4.668;2022-08-03T07:37:09;101632.94;;;22.35;80.03
71778;BME280;59609;52.430;4.668;2022-08-03T07:39:35;101624.63;;;22.08;80.48
71778;BME280;59609;52.430;4.668;2022-08-03T07:42:00;101642.44;;;22.34;79.70
71778;BME280;59609;52.430;4.668;2022-08-03T07:44:26;101626.81;;;22.44;79.30
71778;BME280;59609;52.430;4.668;2022-08-03T07:46:51;101621.69;;;22.73;78.33
71778;BME280;59609;52.430;4.668;2022-08-03T07:49:16;101625.59;;;22.96;78.15
71778;BME280;59609;52.430;4.668;2022-08-03T07:51:41;101624.91;;;23.01;77.07
71778;BME280;59609;52.430;4.668;2022-08-03T07:54:07;101621.41;;;23.05;76.20
71778;BME280;59609;52.430;4.668;2022-08-03T07:56:34;101622.09;;;22.76;77.47
71778;BME280;59609;52.430;4.668;2022-08-03T07:59:00;101629.97;;;22.61;77.60
71778;BME280;59609;52.430;4.668;2022-08-03T08:01:27;101635.97;;;22.33;79.17
71778;BME280;59609;52.430;4.668;2022-08-03T08:03:52;101628.69;;;22.19;79.34
71778;BME280;59609;52.430;4.668;2022-08-03T08:06:17;101628.09;;;22.80;77.73
71778;BME280;59609;52.430;4.668;2022-08-03T08:08:43;101642.72;;;22.57;78.11
71778;BME280;59609;52.430;4.668;2022-08-03T08:11:08;101639.25;;;22.68;77.75
71778;BME280;59609;52.430;4.668;2022-08-03T08:13:34;101632.75;;;22.30;78.14
71778;BME280;59609;52.430;4.668;2022-08-03T08:16:01;101633.44;;;22.56;77.79
71778;BME280;59609;52.430;4.668;2022-08-03T08:18:27;101650.50;;;22.62;77.10
71778;BME280;59609;52.430;4.668;2022-08-03T08:20:54;101651.78;;;22.59;76.34
71778;BME280;59609;52.430;4.668;2022-08-03T08:23:19;101645.06;;;22.67;76.55
71778;BME280;59609;52.430;4.668;2022-08-03T08:25:48;101649.06;;;22.46;77.34
71778;BME280;59609;52.430;4.668;2022-08-03T08:28:15;101643.13;;;22.23;78.56
71778;BME280;59609;52.430;4.668;2022-08-03T08:30:41;101647.25;;;22.20;78.90
71778;BME280;59609;52.430;4.668;2022-08-03T08:33:06;101643.78;;;22.25;78.76
71778;BME280;59609;52.430;4.668;2022-08-03T08:35:31;101644.28;;;22.08;78.69
71778;BME280;59609;52.430;4.668;2022-08-03T08:37:58;101646.06;;;22.41;78.09
71778;BME280;59609;52.430;4.668;2022-08-03T08:40:24;101652.47;;;22.17;78.44
71778;BME280;59609;52.430;4.668;2022-08-03T08:42:51;101651.91;;;22.01;78.50
71778;BME280;59609;52.430;4.668;2022-08-03T08:45:18;101656.66;;;21.88;79.19
71778;BME280;59609;52.430;4.668;2022-08-03T08:47:45;101655.44;;;22.28;78.88
71778;BME280;59609;52.430;4.668;2022-08-03T08:50:11;101661.34;;;22.14;77.78
71778;BME280;59609;52.430;4.668;2022-08-03T08:52:39;101660.94;;;22.03;78.88
71778;BME280;59609;52.430;4.668;2022-08-03T08:55:07;101661.13;;;22.53;76.75
71778;BME280;59609;52.430;4.668;2022-08-03T08:57:34;101673.78;;;22.69;76.02
71778;BME280;59609;52.430;4.668;2022-08-03T09:00:06;101666.31;;;22.87;74.38
71778;BME280;59609;52.430;4.668;2022-08-03T09:02:34;101667.88;;;22.83;74.92
71778;BME280;59609;52.430;4.668;2022-08-03T09:05:00;101679.31;;;22.82;75.32
71778;BME280;59609;52.430;4.668;2022-08-03T09:07:26;101658.34;;;23.09;74.42
71778;BME280;59609;52.430;4.668;2022-08-03T09:09:52;101655.59;;;23.52;73.79
71778;BME280;59609;52.430;4.668;2022-08-03T09:12:18;101652.31;;;23.73;73.07
71778;BME280;59609;52.430;4.668;2022-08-03T09:14:43;101648.78;;;23.41;72.59
71778;BME280;59609;52.430;4.668;2022-08-03T09:17:09;101665.25;;;23.13;73.49
71778;BME280;59609;52.430;4.668;2022-08-03T09:19:35;101654.03;;;23.56;72.22
71778;BME280;59609;52.430;4.668;2022-08-03T09:22:15;101672.72;;;23.69;72.06
71778;BME280;59609;52.430;4.668;2022-08-03T09:24:57;101666.56;;;23.78;71.53
71778;BME280;59609;52.430;4.668;2022-08-03T09:27:23;101653.19;;;24.10;71.13
71778;BME280;59609;52.430;4.668;2022-08-03T09:29:50;101655.00;;;24.04;71.09
71778;BME280;59609;52.430;4.668;2022-08-03T09:32:19;101665.78;;;24.26;70.64
71778;BME280;59609;52.430;4.668;2022-08-03T09:34:46;101662.34;;;24.24;70.11
71778;BME280;59609;52.430;4.668;2022-08-03T09:37:13;101659.22;;;24.14;70.87
71778;BME280;59609;52.430;4.668;2022-08-03T09:39:39;101657.59;;;24.24;70.17
71778;BME280;59609;52.430;4.668;2022-08-03T09:42:16;101657.63;;;23.99;70.67
71778;BME280;59609;52.430;4.668;2022-08-03T09:44:47;101670.16;;;23.85;71.37
71778;BME280;59609;52.430;4.668;2022-08-03T09:47:14;101656.03;;;24.28;70.09
71778;BME280;59609;52.430;4.668;2022-08-03T09:49:41;101655.56;;;24.73;69.34
71778;BME280;59609;52.430;4.668;2022-08-03T09:52:15;101669.72;;;24.25;69.66
71778;BME280;59609;52.430;4.668;2022-08-03T09:54:41;101686.34;;;23.72;71.47
71778;BME280;59609;52.430;4.668;2022-08-03T09:57:07;101666.94;;;23.64;71.09
71778;BME280;59609;52.430;4.668;2022-08-03T09:59:33;101668.81;;;23.70;71.07
71778;BME280;59609;52.430;4.668;2022-08-03T10:01:59;101666.50;;;24.21;70.43
71778;BME280;59609;52.430;4.668;2022-08-03T10:04:25;101656.34;;;24.20;69.19
71778;BME280;59609;52.430;4.668;2022-08-03T10:07:08;101657.69;;;24.47;68.62
71778;BME280;59609;52.430;4.668;2022-08-03T10:09:34;101662.75;;;24.27;68.68
71778;BME280;59609;52.430;4.668;2022-08-03T10:12:10;101661.78;;;24.63;68.18
71778;BME280;59609;52.430;4.668;2022-08-03T10:14:40;101669.81;;;24.48;68.13
71778;BME280;59609;52.430;4.668;2022-08-03T10:17:08;101661.19;;;24.61;68.48
71778;BME280;59609;52.430;4.668;2022-08-03T10:19:33;101662.25;;;24.48;69.49
71778;BME280;59609;52.430;4.668;2022-08-03T10:22:15;101669.38;;;24.63;68.58
71778;BME280;59609;52.430;4.668;2022-08-03T10:24:55;101667.16;;;24.83;67.32
71778;BME280;59609;52.430;4.668;2022-08-03T10:27:23;101667.84;;;24.78;67.90
71778;BME280;59609;52.430;4.668;2022-08-03T10:29:54;101656.44;;;25.15;65.94
71778;BME280;59609;52.430;4.668;2022-08-03T10:32:30;101665.97;;;25.02;66.45
71778;BME280;59609;52.430;4.668;2022-08-03T10:35:10;101663.78;;;25.39;66.48
71778;BME280;59609;52.430;4.668;2022-08-03T10:38:00;101667.00;;;25.31;65.80
71778;BME280;59609;52.430;4.668;2022-08-03T10:40:28;101672.34;;;25.09;66.66
71778;BME280;59609;52.430;4.668;2022-08-03T10:42:56;101676.97;;;25.56;65.97
71778;BME280;59609;52.430;4.668;2022-08-03T10:45:25;101674.66;;;25.53;65.13
71778;BME280;59609;52.430;4.668;2022-08-03T10:47:52;101668.63;;;25.73;64.73
71778;BME280;59609;52.430;4.668;2022-08-03T10:50:22;101654.63;;;25.67;63.64
71778;BME280;59609;52.430;4.668;2022-08-03T10:52:54;101660.75;;;25.52;65.00
71778;BME280;59609;52.430;4.668;2022-08-03T11:01:05;101658.19;;;25.62;64.57
71778;BME280;59609;52.430;4.668;2022-08-03T11:03:32;101672.75;;;25.36;65.53
71778;BME280;59609;52.430;4.668;2022-08-03T11:08:39;101664.16;;;25.07;65.58
71778;BME280;59609;52.430;4.668;2022-08-03T11:11:31;101661.09;;;25.32;65.55
71778;BME280;59609;52.430;4.668;2022-08-03T11:14:00;101661.03;;;25.50;64.35
71778;BME280;59609;52.430;4.668;2022-08-03T11:16:32;101660.00;;;25.33;65.24
71778;BME280;59609;52.430;4.668;2022-08-03T11:19:07;101647.38;;;25.71;64.24
71778;BME280;59609;52.430;4.668;2022-08-03T11:35:10;101649.28;;;26.05;63.21
71778;BME280;59609;52.430;4.668;2022-08-03T11:46:12;101654.34;;;26.43;60.88
71778;BME280;59609;52.430;4.668;2022-08-03T11:48:46;101660.13;;;26.48;60.04
71778;BME280;59609;52.430;4.668;2022-08-03T11:51:30;101645.75;;;26.66;60.12
71778;BME280;59609;52.430;4.668;2022-08-03T11:56:25;101650.78;;;26.92;60.52
71778;BME280;59609;52.430;4.668;2022-08-03T11:58:54;101651.91;;;26.63;60.99
71778;BME280;59609;52.430;4.668;2022-08-03T12:01:21;101648.59;;;27.11;60.14
71778;BME280;59609;52.430;4.668;2022-08-03T12:03:48;101646.81;;;26.77;59.84
71778;BME280;59609;52.430;4.668;2022-08-03T12:06:15;101647.56;;;27.00;59.24
71778;BME280;59609;52.430;4.668;2022-08-03T12:08:42;101644.84;;;26.77;60.61
71778;BME280;59609;52.430;4.668;2022-08-03T12:11:12;101654.34;;;26.71;59.41
71778;BME280;59609;52.430;4.668;2022-08-03T12:13:46;101652.63;;;26.70;60.01
71778;BME280;59609;52.430;4.668;2022-08-03T12:16:22;101643.47;;;26.80;60.86
71778;BME280;59609;52.430;4.668;2022-08-03T12:18:58;101650.78;;;26.92;60.12
71778;BME280;59609;52.430;4.668;2022-08-03T12:21:24;101638.91;;;27.07;59.32
71778;BME280;59609;52.430;4.668;2022-08-03T12:23:50;101646.28;;;26.80;59.42
71778;BME280;59609;52.430;4.668;2022-08-03T12:26:16;101637.09;;;27.01;58.72
71778;BME280;59609;52.430;4.668;2022-08-03T12:28:48;101643.38;;;26.75;59.73
71778;BME280;59609;52.430;4.668;2022-08-03T12:31:14;101636.88;;;26.46;60.14
71778;BME280;59609;52.430;4.668;2022-08-03T12:34:02;101643.63;;;27.01;59.08
71778;BME280;59609;52.430;4.668;2022-08-03T12:36:30;101645.31;;;26.86;59.36
71778;BME280;59609;52.430;4.668;2022-08-03T12:38:59;101647.31;;;26.74;59.51
71778;BME280;59609;52.430;4.668;2022-08-03T12:41:30;101644.31;;;26.92;58.66
71778;BME280;59609;52.430;4.668;2022-08-03T12:43:56;101640.75;;;26.56;59.71
71778;BME280;59609;52.430;4.668;2022-08-03T12:46:32;101646.38;;;26.68;60.49
71778;BME280;59609;52.430;4.668;2022-08-03T12:49:12;101652.78;;;26.63;59.64
71778;BME280;59609;52.430;4.668;2022-08-03T12:54:18;101647.63;;;26.89;59.13
71778;BME280;59609;52.430;4.668;2022-08-03T12:59:32;101641.28;;;26.82;58.66
71778;BME280;59609;52.430;4.668;2022-08-03T13:01:59;101640.47;;;26.41;60.54
71778;BME280;59609;52.430;4.668;2022-08-03T13:09:28;101648.69;;;26.43;60.95
71778;BME280;59609;52.430;4.668;2022-08-03T13:12:04;101649.78;;;26.70;60.61
71778;BME280;59609;52.430;4.668;2022-08-03T13:14:30;101636.94;;;26.34;60.67
71778;BME280;59609;52.430;4.668;2022-08-03T13:16:56;101640.16;;;26.26;60.73
71778;BME280;59609;52.430;4.668;2022-08-03T13:19:21;101636.06;;;26.34;61.21
71778;BME280;59609;52.430;4.668;2022-08-03T13:21:47;101634.31;;;26.04;62.06
71778;BME280;59609;52.430;4.668;2022-08-03T13:24:13;101633.41;;;26.16;60.84
71778;BME280;59609;52.430;4.668;2022-08-03T13:26:39;101648.31;;;26.51;59.89
71778;BME280;59609;52.430;4.668;2022-08-03T13:29:04;101632.44;;;26.50;59.90
71778;BME280;59609;52.430;4.668;2022-08-03T13:31:30;101631.34;;;26.51;59.77
71778;BME280;59609;52.430;4.668;2022-08-03T13:33:55;101635.53;;;26.08;61.32
71778;BME280;59609;52.430;4.668;2022-08-03T13:36:21;101630.94;;;26.31;60.36
71778;BME280;59609;52.430;4.668;2022-08-03T13:38:46;101633.19;;;26.45;60.30